sensor_id;sensor_type;location;lat;lon;timestamp;P1;durP1;ratioP1;P2;durP2;ratioP2
26435;SDS011;15351;52.408;16.826;2022-12-18T00:01:23;59.75;;;27.70;;
26435;SDS011;15351;52.408;16.826;2022-12-18T00:03:52;56.40;;;27.73;;
26435;SDS011;15351;52.408;16.826;2022-12-18T00:06:21;52.60;;;26.60;;
26435;SDS011;15351;52.408;16.826;2022-12-18T00:08:51;51.48;;;26.05;;
26435;SDS011;15351;52.408;16.826;2022-12-18T00:11:19;50.92;;;25.32;;
26435;SDS011;15351;52.408;16.826;2022-12-18T00:13:49;56.25;;;26.27;;
26435;SDS011;15351;52.408;16.826;2022-12-18T00:16:19;62.17;;;28.27;;
26435;SDS011;15351;52.408;16.826;2022-12-18T00:18:48;64.67;;;30.37;;
26435;SDS011;15351;52.408;16.826;2022-12-18T00:21:18;65.22;;;30.55;;
26435;SDS011;15351;52.408;16.826;2022-12-18T00:23:46;65.62;;;29.90;;
26435;SDS011;15351;52.408;16.826;2022-12-18T00:26:16;67.70;;;30.37;;
26435;SDS011;15351;52.408;16.826;2022-12-18T00:28:49;72.27;;;32.42;;
26435;SDS011;15351;52.408;16.826;2022-12-18T00:31:17;62.53;;;28.60;;
26435;SDS011;15351;52.408;16.826;2022-12-18T00:33:47;56.57;;;26.07;;
26435;SDS011;15351;52.408;16.826;2022-12-18T00:36:18;58.83;;;26.82;;
26435;SDS011;15351;52.408;16.826;2022-12-18T00:38:55;59.93;;;26.70;;
26435;SDS011;15351;52.408;16.826;2022-12-18T00:41:23;53.98;;;24.90;;
26435;SDS011;15351;52.408;16.826;2022-12-18T00:44:11;55.60;;;25.88;;
26435;SDS011;15351;52.408;16.826;2022-12-18T00:46:42;57.25;;;26.05;;
26435;SDS011;15351;52.408;16.826;2022-12-18T00:49:09;54.83;;;26.07;;
26435;SDS011;15351;52.408;16.826;2022-12-18T00:51:37;55.30;;;25.55;;
26435;SDS011;15351;52.408;16.826;2022-12-18T00:54:03;55.78;;;26.80;;
26435;SDS011;15351;52.408;16.826;2022-12-18T00:56:30;61.05;;;26.82;;
26435;SDS011;15351;52.408;16.826;2022-12-18T00:58:57;62.77;;;28.13;;
26435;SDS011;15351;52.408;16.826;2022-12-18T01:01:23;59.67;;;27.30;;
26435;SDS011;15351;52.408;16.826;2022-12-18T01:03:50;62.80;;;28.95;;
26435;SDS011;15351;52.408;16.826;2022-12-18T01:06:18;62.58;;;29.15;;
26435;SDS011;15351;52.408;16.826;2022-12-18T01:08:46;60.57;;;27.63;;
26435;SDS011;15351;52.408;16.826;2022-12-18T01:11:15;59.85;;;27.93;;
26435;SDS011;15351;52.408;16.826;2022-12-18T01:13:43;64.85;;;29.12;;
26435;SDS011;15351;52.408;16.826;2022-12-18T01:16:16;62.83;;;28.42;;
26435;SDS011;15351;52.408;16.826;2022-12-18T01:18:41;56.90;;;26.68;;
26435;SDS011;15351;52.408;16.826;2022-12-18T01:21:08;59.83;;;26.25;;
26435;SDS011;15351;52.408;16.826;2022-12-18T01:23:38;58.40;;;26.77;;
26435;SDS011;15351;52.408;16.826;2022-12-18T01:26:09;64.53;;;29.27;;
26435;SDS011;15351;52.408;16.826;2022-12-18T01:28:39;62.35;;;28.52;;
26435;SDS011;15351;52.408;16.826;2022-12-18T01:31:17;60.75;;;27.73;;
26435;SDS011;15351;52.408;16.826;2022-12-18T01:33:50;63.25;;;28.23;;
26435;SDS011;15351;52.408;16.826;2022-12-18T01:38:52;60.63;;;28.10;;
26435;SDS011;15351;52.408;16.826;2022-12-18T01:41:24;61.67;;;28.83;;
26435;SDS011;15351;52.408;16.826;2022-12-18T01:43:56;64.65;;;28.95;;
26435;SDS011;15351;52.408;16.826;2022-12-18T01:46:25;62.25;;;28.27;;
26435;SDS011;15351;52.408;16.826;2022-12-18T01:48:56;61.23;;;27.75;;
26435;SDS011;15351;52.408;16.826;2022-12-18T01:51:27;61.95;;;28.42;;
26435;SDS011;15351;52.408;16.826;2022-12-18T01:53:57;63.50;;;27.90;;
26435;SDS011;15351;52.408;16.826;2022-12-18T01:56:25;64.33;;;27.83;;
26435;SDS011;15351;52.408;16.826;2022-12-18T01:58:56;61.73;;;28.30;;
26435;SDS011;15351;52.408;16.826;2022-12-18T02:01:30;63.35;;;28.98;;
26435;SDS011;15351;52.408;16.826;2022-12-18T02:09:48;63.33;;;28.52;;
26435;SDS011;15351;52.408;16.826;2022-12-18T02:12:20;62.67;;;29.05;;
26435;SDS011;15351;52.408;16.826;2022-12-18T02:18:03;62.10;;;28.62;;
26435;SDS011;15351;52.408;16.826;2022-12-18T02:20:43;64.32;;;29.75;;
26435;SDS011;15351;52.408;16.826;2022-12-18T02:23:20;64.35;;;28.62;;
26435;SDS011;15351;52.408;16.826;2022-12-18T02:26:27;58.38;;;27.22;;
26435;SDS011;15351;52.408;16.826;2022-12-18T02:29:12;59.30;;;27.30;;
26435;SDS011;15351;52.408;16.826;2022-12-18T02:31:44;58.23;;;27.17;;
26435;SDS011;15351;52.408;16.826;2022-12-18T02:34:18;55.48;;;26.60;;
26435;SDS011;15351;52.408;16.826;2022-12-18T02:36:48;59.40;;;26.95;;
26435;SDS011;15351;52.408;16.826;2022-12-18T02:39:19;59.03;;;27.62;;
26435;SDS011;15351;52.408;16.826;2022-12-18T02:41:52;66.10;;;27.95;;
26435;SDS011;15351;52.408;16.826;2022-12-18T02:44:20;59.18;;;28.90;;
26435;SDS011;15351;52.408;16.826;2022-12-18T02:46:50;61.83;;;27.80;;
26435;SDS011;15351;52.408;16.826;2022-12-18T02:49:34;66.07;;;29.97;;
26435;SDS011;15351;52.408;16.826;2022-12-18T02:52:18;63.17;;;28.60;;
26435;SDS011;15351;52.408;16.826;2022-12-18T02:58:26;67.37;;;30.25;;
26435;SDS011;15351;52.408;16.826;2022-12-18T03:03:58;73.90;;;32.55;;
26435;SDS011;15351;52.408;16.826;2022-12-18T03:06:41;73.55;;;32.00;;
26435;SDS011;15351;52.408;16.826;2022-12-18T03:09:21;65.72;;;29.95;;
26435;SDS011;15351;52.408;16.826;2022-12-18T03:12:00;69.20;;;31.27;;
26435;SDS011;15351;52.408;16.826;2022-12-18T03:17:31;66.77;;;30.30;;
26435;SDS011;15351;52.408;16.826;2022-12-18T03:20:02;71.05;;;30.75;;
26435;SDS011;15351;52.408;16.826;2022-12-18T03:22:38;70.28;;;30.90;;
26435;SDS011;15351;52.408;16.826;2022-12-18T03:25:06;67.58;;;29.35;;
26435;SDS011;15351;52.408;16.826;2022-12-18T03:27:37;59.85;;;28.17;;
26435;SDS011;15351;52.408;16.826;2022-12-18T03:30:11;63.28;;;28.87;;
26435;SDS011;15351;52.408;16.826;2022-12-18T03:32:50;64.77;;;29.77;;
26435;SDS011;15351;52.408;16.826;2022-12-18T03:35:27;68.10;;;30.30;;
26435;SDS011;15351;52.408;16.826;2022-12-18T03:37:58;65.92;;;29.27;;
26435;SDS011;15351;52.408;16.826;2022-12-18T03:40:26;67.87;;;30.68;;
26435;SDS011;15351;52.408;16.826;2022-12-18T03:42:59;57.85;;;26.12;;
26435;SDS011;15351;52.408;16.826;2022-12-18T03:45:37;52.48;;;25.23;;
26435;SDS011;15351;52.408;16.826;2022-12-18T03:48:31;56.35;;;26.12;;
26435;SDS011;15351;52.408;16.826;2022-12-18T03:50:57;52.58;;;25.40;;
26435;SDS011;15351;52.408;16.826;2022-12-18T03:53:43;56.68;;;26.85;;
26435;SDS011;15351;52.408;16.826;2022-12-18T03:56:29;56.50;;;26.33;;
26435;SDS011;15351;52.408;16.826;2022-12-18T03:59:01;58.03;;;26.60;;
26435;SDS011;15351;52.408;16.826;2022-12-18T04:01:35;57.40;;;26.55;;
26435;SDS011;15351;52.408;16.826;2022-12-18T04:04:04;56.65;;;26.25;;
26435;SDS011;15351;52.408;16.826;2022-12-18T04:06:34;58.25;;;27.42;;
26435;SDS011;15351;52.408;16.826;2022-12-18T04:09:03;54.45;;;25.95;;
26435;SDS011;15351;52.408;16.826;2022-12-18T04:11:32;48.23;;;23.35;;
26435;SDS011;15351;52.408;16.826;2022-12-18T04:13:58;49.70;;;23.87;;
26435;SDS011;15351;52.408;16.826;2022-12-18T04:16:25;50.55;;;24.60;;
26435;SDS011;15351;52.408;16.826;2022-12-18T04:18:56;50.73;;;24.05;;
26435;SDS011;15351;52.408;16.826;2022-12-18T04:21:26;48.45;;;23.22;;
26435;SDS011;15351;52.408;16.826;2022-12-18T04:23:53;46.85;;;22.62;;
26435;SDS011;15351;52.408;16.826;2022-12-18T04:26:21;47.70;;;22.07;;
26435;SDS011;15351;52.408;16.826;2022-12-18T04:29:08;48.50;;;22.90;;
26435;SDS011;15351;52.408;16.826;2022-12-18T04:31:35;52.23;;;24.73;;
26435;SDS011;15351;52.408;16.826;2022-12-18T04:34:03;52.98;;;24.27;;
26435;SDS011;15351;52.408;16.826;2022-12-18T04:36:31;53.35;;;25.15;;
26435;SDS011;15351;52.408;16.826;2022-12-18T04:38:58;51.55;;;23.73;;
26435;SDS011;15351;52.408;16.826;2022-12-18T04:41:25;51.95;;;24.70;;
26435;SDS011;15351;52.408;16.826;2022-12-18T04:43:51;58.08;;;25.95;;
26435;SDS011;15351;52.408;16.826;2022-12-18T04:46:19;63.70;;;27.87;;
26435;SDS011;15351;52.408;16.826;2022-12-18T04:48:47;66.28;;;28.45;;
26435;SDS011;15351;52.408;16.826;2022-12-18T04:51:13;64.65;;;28.15;;
26435;SDS011;15351;52.408;16.826;2022-12-18T04:53:40;56.35;;;24.87;;
26435;SDS011;15351;52.408;16.826;2022-12-18T04:56:13;54.88;;;24.75;;
26435;SDS011;15351;52.408;16.826;2022-12-18T04:58:42;53.48;;;25.52;;
26435;SDS011;15351;52.408;16.826;2022-12-18T05:01:10;54.98;;;25.17;;
26435;SDS011;15351;52.408;16.826;2022-12-18T05:03:41;60.28;;;26.55;;
26435;SDS011;15351;52.408;16.826;2022-12-18T05:06:10;57.20;;;25.67;;
26435;SDS011;15351;52.408;16.826;2022-12-18T05:08:37;62.03;;;26.80;;
26435;SDS011;15351;52.408;16.826;2022-12-18T05:11:05;59.50;;;26.82;;
26435;SDS011;15351;52.408;16.826;2022-12-18T05:13:36;60.60;;;27.67;;
26435;SDS011;15351;52.408;16.826;2022-12-18T05:16:04;59.88;;;27.30;;
26435;SDS011;15351;52.408;16.826;2022-12-18T05:18:36;59.50;;;27.40;;
26435;SDS011;15351;52.408;16.826;2022-12-18T05:21:03;58.42;;;26.17;;
26435;SDS011;15351;52.408;16.826;2022-12-18T05:23:34;54.67;;;25.80;;
26435;SDS011;15351;52.408;16.826;2022-12-18T05:26:02;61.58;;;26.70;;
26435;SDS011;15351;52.408;16.826;2022-12-18T05:28:31;58.05;;;26.75;;
26435;SDS011;15351;52.408;16.826;2022-12-18T05:31:01;64.00;;;28.70;;
26435;SDS011;15351;52.408;16.826;2022-12-18T05:33:31;67.47;;;28.87;;
26435;SDS011;15351;52.408;16.826;2022-12-18T05:36:01;68.02;;;28.87;;
26435;SDS011;15351;52.408;16.826;2022-12-18T05:38:31;58.87;;;26.20;;
26435;SDS011;15351;52.408;16.826;2022-12-18T05:41:02;52.73;;;23.73;;
26435;SDS011;15351;52.408;16.826;2022-12-18T05:43:29;48.87;;;23.38;;
26435;SDS011;15351;52.408;16.826;2022-12-18T05:45:56;47.70;;;22.60;;
26435;SDS011;15351;52.408;16.826;2022-12-18T05:48:23;49.27;;;23.73;;
26435;SDS011;15351;52.408;16.826;2022-12-18T05:50:56;51.53;;;24.65;;
26435;SDS011;15351;52.408;16.826;2022-12-18T05:53:34;51.73;;;23.45;;
26435;SDS011;15351;52.408;16.826;2022-12-18T05:56:03;56.07;;;25.27;;
26435;SDS011;15351;52.408;16.826;2022-12-18T05:58:34;53.45;;;24.23;;
26435;SDS011;15351;52.408;16.826;2022-12-18T06:01:15;55.78;;;25.90;;
26435;SDS011;15351;52.408;16.826;2022-12-18T06:03:43;55.28;;;25.52;;
26435;SDS011;15351;52.408;16.826;2022-12-18T06:06:14;57.53;;;26.60;;
26435;SDS011;15351;52.408;16.826;2022-12-18T06:08:52;59.25;;;26.25;;
26435;SDS011;15351;52.408;16.826;2022-12-18T06:11:25;59.13;;;26.27;;
26435;SDS011;15351;52.408;16.826;2022-12-18T06:13:53;55.08;;;25.60;;
26435;SDS011;15351;52.408;16.826;2022-12-18T06:16:22;56.20;;;24.60;;
26435;SDS011;15351;52.408;16.826;2022-12-18T06:18:48;56.70;;;24.90;;
26435;SDS011;15351;52.408;16.826;2022-12-18T06:21:15;55.03;;;24.37;;
26435;SDS011;15351;52.408;16.826;2022-12-18T06:23:41;54.35;;;25.30;;
26435;SDS011;15351;52.408;16.826;2022-12-18T06:26:10;54.87;;;24.03;;
26435;SDS011;15351;52.408;16.826;2022-12-18T06:28:37;55.85;;;24.52;;
26435;SDS011;15351;52.408;16.826;2022-12-18T06:31:04;56.90;;;25.93;;
26435;SDS011;15351;52.408;16.826;2022-12-18T06:33:32;56.23;;;24.43;;
26435;SDS011;15351;52.408;16.826;2022-12-18T06:36:01;56.77;;;24.77;;
26435;SDS011;15351;52.408;16.826;2022-12-18T06:38:34;55.70;;;25.83;;
26435;SDS011;15351;52.408;16.826;2022-12-18T06:41:13;54.15;;;24.20;;
26435;SDS011;15351;52.408;16.826;2022-12-18T06:43:39;56.30;;;24.82;;
26435;SDS011;15351;52.408;16.826;2022-12-18T06:46:07;55.88;;;24.85;;
26435;SDS011;15351;52.408;16.826;2022-12-18T06:48:34;54.95;;;24.80;;
26435;SDS011;15351;52.408;16.826;2022-12-18T06:51:01;57.45;;;25.15;;
26435;SDS011;15351;52.408;16.826;2022-12-18T06:53:30;60.75;;;26.17;;
26435;SDS011;15351;52.408;16.826;2022-12-18T06:56:05;55.13;;;25.30;;
26435;SDS011;15351;52.408;16.826;2022-12-18T06:58:33;60.00;;;25.95;;
26435;SDS011;15351;52.408;16.826;2022-12-18T07:01:04;59.75;;;26.33;;
26435;SDS011;15351;52.408;16.826;2022-12-18T07:03:30;65.70;;;28.15;;
26435;SDS011;15351;52.408;16.826;2022-12-18T07:05:57;62.03;;;26.77;;
26435;SDS011;15351;52.408;16.826;2022-12-18T07:08:25;61.87;;;26.30;;
26435;SDS011;15351;52.408;16.826;2022-12-18T07:10:52;64.15;;;26.73;;
26435;SDS011;15351;52.408;16.826;2022-12-18T07:13:19;61.10;;;26.40;;
26435;SDS011;15351;52.408;16.826;2022-12-18T07:15:46;54.90;;;25.15;;
26435;SDS011;15351;52.408;16.826;2022-12-18T07:18:14;55.92;;;24.23;;
26435;SDS011;15351;52.408;16.826;2022-12-18T07:20:43;54.15;;;24.90;;
26435;SDS011;15351;52.408;16.826;2022-12-18T07:23:10;55.98;;;24.85;;
26435;SDS011;15351;52.408;16.826;2022-12-18T07:25:36;57.98;;;25.45;;
26435;SDS011;15351;52.408;16.826;2022-12-18T07:28:03;58.85;;;25.35;;
26435;SDS011;15351;52.408;16.826;2022-12-18T07:30:30;58.55;;;26.12;;
26435;SDS011;15351;52.408;16.826;2022-12-18T07:32:57;58.77;;;26.50;;
26435;SDS011;15351;52.408;16.826;2022-12-18T07:35:25;57.48;;;25.80;;
26435;SDS011;15351;52.408;16.826;2022-12-18T07:37:53;52.00;;;24.45;;
26435;SDS011;15351;52.408;16.826;2022-12-18T07:40:19;51.85;;;24.07;;
26435;SDS011;15351;52.408;16.826;2022-12-18T07:42:45;52.38;;;24.00;;
26435;SDS011;15351;52.408;16.826;2022-12-18T07:45:12;54.08;;;24.57;;
26435;SDS011;15351;52.408;16.826;2022-12-18T07:47:39;54.55;;;24.95;;
26435;SDS011;15351;52.408;16.826;2022-12-18T07:50:07;55.63;;;24.47;;
26435;SDS011;15351;52.408;16.826;2022-12-18T07:52:33;54.30;;;24.77;;
26435;SDS011;15351;52.408;16.826;2022-12-18T07:55:00;55.38;;;25.45;;
26435;SDS011;15351;52.408;16.826;2022-12-18T07:57:28;58.48;;;26.73;;
26435;SDS011;15351;52.408;16.826;2022-12-18T07:59:55;55.65;;;26.42;;
26435;SDS011;15351;52.408;16.826;2022-12-18T08:02:22;58.10;;;25.70;;
26435;SDS011;15351;52.408;16.826;2022-12-18T08:04:51;60.98;;;27.40;;
26435;SDS011;15351;52.408;16.826;2022-12-18T08:07:20;59.73;;;27.85;;
26435;SDS011;15351;52.408;16.826;2022-12-18T08:09:46;59.77;;;27.07;;
26435;SDS011;15351;52.408;16.826;2022-12-18T08:12:12;60.80;;;26.90;;
26435;SDS011;15351;52.408;16.826;2022-12-18T08:14:39;60.43;;;27.82;;
26435;SDS011;15351;52.408;16.826;2022-12-18T08:17:05;61.50;;;26.48;;
26435;SDS011;15351;52.408;16.826;2022-12-18T08:19:31;66.60;;;29.70;;
26435;SDS011;15351;52.408;16.826;2022-12-18T08:21:59;70.80;;;30.88;;
26435;SDS011;15351;52.408;16.826;2022-12-18T08:24:25;69.27;;;30.95;;
26435;SDS011;15351;52.408;16.826;2022-12-18T08:26:52;70.25;;;30.70;;
26435;SDS011;15351;52.408;16.826;2022-12-18T08:29:19;68.13;;;30.63;;
26435;SDS011;15351;52.408;16.826;2022-12-18T08:31:45;66.87;;;30.60;;
26435;SDS011;15351;52.408;16.826;2022-12-18T08:34:13;69.25;;;31.57;;
26435;SDS011;15351;52.408;16.826;2022-12-18T08:36:40;74.90;;;33.60;;
26435;SDS011;15351;52.408;16.826;2022-12-18T08:39:08;63.73;;;29.15;;
26435;SDS011;15351;52.408;16.826;2022-12-18T08:41:34;64.10;;;29.60;;
26435;SDS011;15351;52.408;16.826;2022-12-18T08:44:00;76.92;;;34.43;;
26435;SDS011;15351;52.408;16.826;2022-12-18T08:46:47;66.02;;;29.98;;
26435;SDS011;15351;52.408;16.826;2022-12-18T08:49:14;54.45;;;26.60;;
26435;SDS011;15351;52.408;16.826;2022-12-18T08:51:41;59.30;;;28.05;;
26435;SDS011;15351;52.408;16.826;2022-12-18T08:54:09;57.23;;;27.80;;
26435;SDS011;15351;52.408;16.826;2022-12-18T08:56:42;62.78;;;30.75;;
26435;SDS011;15351;52.408;16.826;2022-12-18T08:59:10;76.82;;;38.90;;
26435;SDS011;15351;52.408;16.826;2022-12-18T09:01:37;76.17;;;37.17;;
26435;SDS011;15351;52.408;16.826;2022-12-18T09:04:03;50.92;;;25.95;;
26435;SDS011;15351;52.408;16.826;2022-12-18T09:06:30;61.73;;;29.87;;
26435;SDS011;15351;52.408;16.826;2022-12-18T09:08:58;58.43;;;28.17;;
26435;SDS011;15351;52.408;16.826;2022-12-18T09:11:25;59.38;;;29.50;;
26435;SDS011;15351;52.408;16.826;2022-12-18T09:13:53;58.23;;;28.83;;
26435;SDS011;15351;52.408;16.826;2022-12-18T09:16:21;61.23;;;29.60;;
26435;SDS011;15351;52.408;16.826;2022-12-18T09:18:51;54.83;;;27.52;;
26435;SDS011;15351;52.408;16.826;2022-12-18T09:21:19;54.47;;;26.33;;
26435;SDS011;15351;52.408;16.826;2022-12-18T09:23:49;53.13;;;26.45;;
26435;SDS011;15351;52.408;16.826;2022-12-18T09:26:17;54.15;;;26.37;;
26435;SDS011;15351;52.408;16.826;2022-12-18T09:28:53;48.83;;;25.77;;
26435;SDS011;15351;52.408;16.826;2022-12-18T09:31:30;49.07;;;25.13;;
26435;SDS011;15351;52.408;16.826;2022-12-18T09:33:57;53.52;;;25.95;;
26435;SDS011;15351;52.408;16.826;2022-12-18T09:36:23;49.38;;;25.05;;
26435;SDS011;15351;52.408;16.826;2022-12-18T09:38:50;48.30;;;24.45;;
26435;SDS011;15351;52.408;16.826;2022-12-18T09:41:34;48.68;;;24.52;;
26435;SDS011;15351;52.408;16.826;2022-12-18T09:44:12;47.75;;;25.23;;
26435;SDS011;15351;52.408;16.826;2022-12-18T09:46:52;49.57;;;24.80;;
26435;SDS011;15351;52.408;16.826;2022-12-18T09:49:21;49.17;;;25.67;;
26435;SDS011;15351;52.408;16.826;2022-12-18T09:51:54;49.25;;;25.92;;
26435;SDS011;15351;52.408;16.826;2022-12-18T09:54:48;50.17;;;26.12;;
26435;SDS011;15351;52.408;16.826;2022-12-18T09:57:23;54.18;;;29.48;;
26435;SDS011;15351;52.408;16.826;2022-12-18T09:59:50;56.02;;;30.12;;
26435;SDS011;15351;52.408;16.826;2022-12-18T10:02:24;53.98;;;29.52;;
26435;SDS011;15351;52.408;16.826;2022-12-18T10:05:10;55.17;;;28.52;;
26435;SDS011;15351;52.408;16.826;2022-12-18T10:10:51;58.10;;;31.23;;
26435;SDS011;15351;52.408;16.826;2022-12-18T10:13:31;56.63;;;30.20;;
26435;SDS011;15351;52.408;16.826;2022-12-18T10:16:28;54.65;;;30.08;;
26435;SDS011;15351;52.408;16.826;2022-12-18T10:19:00;52.23;;;29.33;;
26435;SDS011;15351;52.408;16.826;2022-12-18T10:21:36;53.58;;;29.48;;
26435;SDS011;15351;52.408;16.826;2022-12-18T10:24:23;55.48;;;30.82;;
26435;SDS011;15351;52.408;16.826;2022-12-18T10:27:13;73.45;;;39.95;;
26435;SDS011;15351;52.408;16.826;2022-12-18T10:29:45;64.30;;;34.60;;
26435;SDS011;15351;52.408;16.826;2022-12-18T10:32:14;62.13;;;33.27;;
26435;SDS011;15351;52.408;16.826;2022-12-18T10:34:49;55.10;;;30.52;;
26435;SDS011;15351;52.408;16.826;2022-12-18T10:37:20;48.60;;;26.30;;
26435;SDS011;15351;52.408;16.826;2022-12-18T10:42:41;50.40;;;29.10;;
26435;SDS011;15351;52.408;16.826;2022-12-18T10:45:14;50.33;;;30.23;;
26435;SDS011;15351;52.408;16.826;2022-12-18T10:47:50;49.45;;;28.12;;
26435;SDS011;15351;52.408;16.826;2022-12-18T10:50:22;47.33;;;27.25;;
26435;SDS011;15351;52.408;16.826;2022-12-18T10:52:58;44.67;;;25.12;;
26435;SDS011;15351;52.408;16.826;2022-12-18T10:55:38;44.20;;;25.62;;
26435;SDS011;15351;52.408;16.826;2022-12-18T10:58:29;41.73;;;23.83;;
26435;SDS011;15351;52.408;16.826;2022-12-18T11:03:43;51.27;;;28.97;;
26435;SDS011;15351;52.408;16.826;2022-12-18T11:06:17;52.55;;;29.75;;
26435;SDS011;15351;52.408;16.826;2022-12-18T11:08:57;47.08;;;27.65;;
26435;SDS011;15351;52.408;16.826;2022-12-18T11:11:33;52.17;;;30.08;;
26435;SDS011;15351;52.408;16.826;2022-12-18T11:14:02;50.00;;;29.55;;
26435;SDS011;15351;52.408;16.826;2022-12-18T11:16:52;50.75;;;29.55;;
26435;SDS011;15351;52.408;16.826;2022-12-18T11:19:33;54.07;;;31.23;;
26435;SDS011;15351;52.408;16.826;2022-12-18T11:22:23;53.33;;;30.45;;
26435;SDS011;15351;52.408;16.826;2022-12-18T11:24:59;53.95;;;29.92;;
26435;SDS011;15351;52.408;16.826;2022-12-18T11:27:51;52.35;;;30.27;;
26435;SDS011;15351;52.408;16.826;2022-12-18T11:30:28;50.70;;;28.87;;
26435;SDS011;15351;52.408;16.826;2022-12-18T11:33:06;50.95;;;28.17;;
26435;SDS011;15351;52.408;16.826;2022-12-18T11:35:50;47.93;;;27.15;;
26435;SDS011;15351;52.408;16.826;2022-12-18T11:38:32;45.78;;;27.05;;
26435;SDS011;15351;52.408;16.826;2022-12-18T11:44:26;47.63;;;26.77;;
26435;SDS011;15351;52.408;16.826;2022-12-18T11:50:14;43.48;;;26.33;;
26435;SDS011;15351;52.408;16.826;2022-12-18T11:52:42;48.78;;;27.73;;
26435;SDS011;15351;52.408;16.826;2022-12-18T12:01:35;45.50;;;26.10;;
26435;SDS011;15351;52.408;16.826;2022-12-18T12:10:00;54.23;;;30.43;;
26435;SDS011;15351;52.408;16.826;2022-12-18T12:21:28;64.30;;;34.40;;
26435;SDS011;15351;52.408;16.826;2022-12-18T12:24:25;72.05;;;38.58;;
26435;SDS011;15351;52.408;16.826;2022-12-18T12:27:24;61.20;;;33.78;;
26435;SDS011;15351;52.408;16.826;2022-12-18T12:30:07;52.10;;;30.02;;
26435;SDS011;15351;52.408;16.826;2022-12-18T12:38:53;58.65;;;35.05;;
26435;SDS011;15351;52.408;16.826;2022-12-18T12:41:24;68.07;;;36.40;;
26435;SDS011;15351;52.408;16.826;2022-12-18T12:44:16;59.73;;;33.53;;
26435;SDS011;15351;52.408;16.826;2022-12-18T12:46:59;59.30;;;32.42;;
26435;SDS011;15351;52.408;16.826;2022-12-18T12:49:31;69.37;;;43.08;;
26435;SDS011;15351;52.408;16.826;2022-12-18T12:54:51;57.17;;;33.20;;
26435;SDS011;15351;52.408;16.826;2022-12-18T12:57:26;61.20;;;33.95;;
26435;SDS011;15351;52.408;16.826;2022-12-18T13:05:56;55.17;;;32.93;;
26435;SDS011;15351;52.408;16.826;2022-12-18T13:08:24;53.38;;;30.40;;
26435;SDS011;15351;52.408;16.826;2022-12-18T13:10:58;60.73;;;35.25;;
26435;SDS011;15351;52.408;16.826;2022-12-18T13:13:50;56.17;;;32.43;;
26435;SDS011;15351;52.408;16.826;2022-12-18T13:16:23;52.65;;;32.88;;
26435;SDS011;15351;52.408;16.826;2022-12-18T13:18:54;54.48;;;30.60;;
26435;SDS011;15351;52.408;16.826;2022-12-18T13:23:56;52.73;;;29.80;;
26435;SDS011;15351;52.408;16.826;2022-12-18T13:26:41;50.28;;;28.80;;
26435;SDS011;15351;52.408;16.826;2022-12-18T13:29:07;44.90;;;26.97;;
26435;SDS011;15351;52.408;16.826;2022-12-18T13:34:16;63.58;;;34.33;;
26435;SDS011;15351;52.408;16.826;2022-12-18T13:36:49;60.88;;;31.97;;
26435;SDS011;15351;52.408;16.826;2022-12-18T13:44:41;67.05;;;34.18;;
26435;SDS011;15351;52.408;16.826;2022-12-18T13:47:44;60.60;;;32.10;;
26435;SDS011;15351;52.408;16.826;2022-12-18T13:50:11;63.87;;;33.98;;
26435;SDS011;15351;52.408;16.826;2022-12-18T13:52:41;69.15;;;34.15;;
26435;SDS011;15351;52.408;16.826;2022-12-18T13:55:14;61.53;;;34.63;;
26435;SDS011;15351;52.408;16.826;2022-12-18T13:57:46;56.77;;;32.48;;
26435;SDS011;15351;52.408;16.826;2022-12-18T14:00:23;53.87;;;30.45;;
26435;SDS011;15351;52.408;16.826;2022-12-18T14:02:57;53.40;;;32.05;;
26435;SDS011;15351;52.408;16.826;2022-12-18T14:05:33;57.47;;;32.03;;
26435;SDS011;15351;52.408;16.826;2022-12-18T14:08:05;69.07;;;36.40;;
26435;SDS011;15351;52.408;16.826;2022-12-18T14:10:41;72.00;;;38.50;;
26435;SDS011;15351;52.408;16.826;2022-12-18T14:13:10;59.75;;;33.85;;
26435;SDS011;15351;52.408;16.826;2022-12-18T14:15:46;65.72;;;38.25;;
26435;SDS011;15351;52.408;16.826;2022-12-18T14:21:22;66.42;;;36.63;;
26435;SDS011;15351;52.408;16.826;2022-12-18T14:26:43;69.58;;;37.15;;
26435;SDS011;15351;52.408;16.826;2022-12-18T14:34:47;72.55;;;40.38;;
26435;SDS011;15351;52.408;16.826;2022-12-18T14:37:25;75.43;;;42.07;;
26435;SDS011;15351;52.408;16.826;2022-12-18T14:39:52;69.42;;;39.50;;
26435;SDS011;15351;52.408;16.826;2022-12-18T14:42:29;73.55;;;39.80;;
26435;SDS011;15351;52.408;16.826;2022-12-18T14:48:05;71.72;;;37.75;;
26435;SDS011;15351;52.408;16.826;2022-12-18T14:50:40;67.30;;;37.55;;
26435;SDS011;15351;52.408;16.826;2022-12-18T14:53:21;68.07;;;38.15;;
26435;SDS011;15351;52.408;16.826;2022-12-18T14:56:00;70.45;;;38.85;;
26435;SDS011;15351;52.408;16.826;2022-12-18T14:58:29;72.37;;;39.95;;
26435;SDS011;15351;52.408;16.826;2022-12-18T15:00:55;75.73;;;40.47;;
26435;SDS011;15351;52.408;16.826;2022-12-18T15:03:24;81.97;;;43.80;;
26435;SDS011;15351;52.408;16.826;2022-12-18T15:05:52;73.17;;;38.70;;
26435;SDS011;15351;52.408;16.826;2022-12-18T15:08:35;82.33;;;45.08;;
26435;SDS011;15351;52.408;16.826;2022-12-18T15:11:02;84.05;;;43.80;;
26435;SDS011;15351;52.408;16.826;2022-12-18T15:13:33;72.25;;;40.15;;
26435;SDS011;15351;52.408;16.826;2022-12-18T15:16:00;76.40;;;40.45;;
26435;SDS011;15351;52.408;16.826;2022-12-18T15:18:34;77.75;;;43.78;;
26435;SDS011;15351;52.408;16.826;2022-12-18T15:21:08;69.50;;;38.90;;
26435;SDS011;15351;52.408;16.826;2022-12-18T15:26:18;76.22;;;40.92;;
26435;SDS011;15351;52.408;16.826;2022-12-18T15:28:50;69.15;;;37.88;;
26435;SDS011;15351;52.408;16.826;2022-12-18T15:31:34;66.95;;;36.80;;
26435;SDS011;15351;52.408;16.826;2022-12-18T15:34:11;67.17;;;36.85;;
26435;SDS011;15351;52.408;16.826;2022-12-18T15:36:38;69.85;;;38.67;;
26435;SDS011;15351;52.408;16.826;2022-12-18T15:39:05;69.60;;;38.28;;
26435;SDS011;15351;52.408;16.826;2022-12-18T15:41:32;68.28;;;37.45;;
26435;SDS011;15351;52.408;16.826;2022-12-18T15:44:01;72.90;;;39.75;;
26435;SDS011;15351;52.408;16.826;2022-12-18T15:46:31;70.52;;;40.08;;
26435;SDS011;15351;52.408;16.826;2022-12-18T15:48:59;76.22;;;42.35;;
26435;SDS011;15351;52.408;16.826;2022-12-18T15:51:27;65.50;;;37.53;;
26435;SDS011;15351;52.408;16.826;2022-12-18T15:54:04;69.00;;;38.48;;
26435;SDS011;15351;52.408;16.826;2022-12-18T15:56:34;79.12;;;44.00;;
26435;SDS011;15351;52.408;16.826;2022-12-18T15:59:19;88.93;;;49.53;;
26435;SDS011;15351;52.408;16.826;2022-12-18T16:01:47;79.67;;;45.60;;
26435;SDS011;15351;52.408;16.826;2022-12-18T16:04:19;76.72;;;42.00;;
26435;SDS011;15351;52.408;16.826;2022-12-18T16:06:48;81.15;;;46.00;;
26435;SDS011;15351;52.408;16.826;2022-12-18T16:09:15;71.53;;;39.35;;
26435;SDS011;15351;52.408;16.826;2022-12-18T16:11:43;68.80;;;40.85;;
26435;SDS011;15351;52.408;16.826;2022-12-18T16:14:18;59.27;;;33.07;;
26435;SDS011;15351;52.408;16.826;2022-12-18T16:16:54;58.85;;;32.48;;